Time;durP1;ratioP1;P1;durP2;ratioP2;P2;SDS_P1;SDS_P2;PMS_P1;PMS_P2;Temp;Humidity;BMP_temperature;BMP_pressure;BME280_temperature;BME280_humidity;BME280_pressure;Samples;Min_cycle;Max_cycle;Signal;HPM_P1;HPM_P2
2023/09/29 00:01:39;;;;;;;5.70;4.20;;;21.50;73.30;;;;;;5054503;28;20206;-68
2023/09/29 00:04:07;;;;;;;4.33;3.83;;;21.50;73.50;;;;;;5053715;28;20320;-68
2023/09/29 00:06:34;;;;;;;4.87;3.73;;;21.50;73.60;;;;;;5054186;28;20197;-69
2023/09/29 00:09:01;;;;;;;5.17;4.10;;;21.50;73.70;;;;;;5054481;28;20206;-68
2023/09/29 00:11:30;;;;;;;4.60;3.70;;;21.50;73.70;;;;;;5052172;28;20214;-69
2023/09/29 00:13:59;;;;;;;4.20;3.80;;;21.50;74.40;;;;;;5054144;28;20206;-69
2023/09/29 00:16:26;;;;;;;5.07;3.63;;;21.40;73.60;;;;;;5053629;28;20732;-69
2023/09/29 00:18:55;;;;;;;4.90;3.60;;;21.40;74.50;;;;;;5052901;28;20201;-69
2023/09/29 00:21:22;;;;;;;6.97;3.80;;;21.40;73.80;;;;;;5043627;28;20627;-68
2023/09/29 00:23:48;;;;;;;5.70;3.73;;;21.30;74.20;;;;;;5034161;28;20206;-68
2023/09/29 00:26:15;;;;;;;3.83;3.40;;;21.20;73.40;;;;;;5041657;28;20226;-69
2023/09/29 00:28:42;;;;;;;5.33;3.80;;;21.20;73.40;;;;;;5053875;28;20226;-69
2023/09/29 00:31:10;;;;;;;4.70;4.23;;;21.20;73.60;;;;;;5052954;28;20579;-69
2023/09/29 00:33:38;;;;;;;5.27;4.10;;;21.10;73.90;;;;;;5053656;28;20271;-69
2023/09/29 00:36:06;;;;;;;5.40;4.03;;;21.00;74.80;;;;;;5053406;28;20559;-69
2023/09/29 00:38:34;;;;;;;5.80;4.00;;;21.00;74.40;;;;;;5053879;28;20218;-69
2023/09/29 00:41:01;;;;;;;6.07;4.13;;;20.90;74.50;;;;;;5053587;28;20245;-69
2023/09/29 00:43:29;;;;;;;5.80;4.07;;;20.90;74.70;;;;;;5053405;28;20265;-69
2023/09/29 00:45:56;;;;;;;4.57;4.00;;;20.90;75.10;;;;;;5053104;28;20204;-69
2023/09/29 00:48:25;;;;;;;4.70;4.07;;;20.90;75.20;;;;;;5053373;28;20243;-69
2023/09/29 00:50:54;;;;;;;6.60;3.97;;;20.90;75.30;;;;;;5053476;28;20202;-69
2023/09/29 00:53:22;;;;;;;5.37;4.10;;;20.90;75.40;;;;;;5053167;28;20669;-66
2023/09/29 00:55:50;;;;;;;5.03;4.23;;;20.90;75.40;;;;;;5053327;28;20317;-68
2023/09/29 00:58:19;;;;;;;4.83;4.13;;;20.80;75.00;;;;;;5053096;28;20209;-68
2023/09/29 01:00:46;;;;;;;5.03;4.10;;;20.80;75.00;;;;;;5053292;28;20557;-68
2023/09/29 01:03:14;;;;;;;5.93;4.00;;;20.80;75.00;;;;;;5053353;28;20202;-69
2023/09/29 01:05:45;;;;;;;5.23;3.83;;;20.80;75.70;;;;;;5052395;28;20229;-68
2023/09/29 01:08:22;;;;;;;4.73;3.77;;;20.80;75.10;;;;;;5033263;28;20221;-69
2023/09/29 01:10:49;;;;;;;4.23;3.83;;;20.80;75.10;;;;;;5049392;28;20229;-68
2023/09/29 01:13:16;;;;;;;4.13;3.70;;;20.70;74.80;;;;;;5045820;28;20219;-68
2023/09/29 01:15:43;;;;;;;4.80;3.93;;;20.70;74.80;;;;;;5052353;28;20708;-69
2023/09/29 01:18:11;;;;;;;4.97;3.97;;;20.70;74.90;;;;;;5053090;28;20204;-69
2023/09/29 01:20:39;;;;;;;4.63;3.83;;;20.70;75.30;;;;;;5048563;28;20208;-69
2023/09/29 01:23:08;;;;;;;5.37;4.33;;;20.60;75.50;;;;;;5039723;28;20244;-69
2023/09/29 01:25:37;;;;;;;4.50;3.90;;;20.50;75.70;;;;;;5052567;28;20346;-69
2023/09/29 01:28:05;;;;;;;10.40;4.03;;;20.50;76.10;;;;;;5052540;28;20233;-69
2023/09/29 01:30:32;;;;;;;4.57;4.07;;;20.50;76.20;;;;;;5052582;28;20911;-69
2023/09/29 01:32:59;;;;;;;4.93;4.03;;;20.50;76.20;;;;;;5052776;28;20225;-69
2023/09/29 01:35:27;;;;;;;5.93;4.20;;;20.50;76.30;;;;;;5052139;28;20704;-69
2023/09/29 01:37:58;;;;;;;4.67;3.97;;;20.60;76.50;;;;;;5052463;28;20233;-69
2023/09/29 01:40:27;;;;;;;7.03;4.30;;;20.60;76.60;;;;;;5052833;28;20206;-68
2023/09/29 01:42:57;;;;;;;5.03;4.03;;;20.60;76.60;;;;;;5052055;28;20308;-68
2023/09/29 01:45:26;;;;;;;4.90;4.30;;;20.50;76.60;;;;;;5052313;28;20213;-68
2023/09/29 01:47:54;;;;;;;5.03;3.77;;;20.50;76.40;;;;;;5052410;28;20202;-68
2023/09/29 01:50:22;;;;;;;5.20;3.90;;;20.60;76.30;;;;;;5052601;28;20618;-68
2023/09/29 01:52:49;;;;;;;4.33;3.93;;;20.60;76.10;;;;;;5052487;28;20198;-68
2023/09/29 01:55:19;;;;;;;4.47;4.03;;;20.50;76.10;;;;;;5051734;28;20209;-69
2023/09/29 01:57:48;;;;;;;4.80;3.90;;;20.50;76.30;;;;;;5052152;28;20222;-69
2023/09/29 02:00:19;;;;;;;4.03;3.33;;;20.50;76.40;;;;;;5052202;28;20235;-69
2023/09/29 02:02:46;;;;;;;4.90;4.00;;;20.50;76.30;;;;;;5052321;28;20260;-67
2023/09/29 02:05:13;;;;;;;4.07;3.67;;;20.50;76.30;;;;;;5052016;28;20229;-69
2023/09/29 02:07:40;;;;;;;5.37;3.97;;;20.50;76.40;;;;;;5052296;28;20205;-68
2023/09/29 02:10:11;;;;;;;4.40;3.37;;;20.50;76.30;;;;;;5051964;28;20741;-68
2023/09/29 02:12:46;;;;;;;4.13;3.73;;;20.50;76.50;;;;;;5052345;28;20206;-66
2023/09/29 02:15:16;;;;;;;4.27;3.70;;;20.50;76.70;;;;;;5051183;28;20729;-68
2023/09/29 02:17:44;;;;;;;4.23;3.63;;;20.50;76.40;;;;;;5051915;28;20222;-69
2023/09/29 02:20:15;;;;;;;6.40;4.17;;;20.50;76.40;;;;;;5051937;28;20677;-69
2023/09/29 02:22:43;;;;;;;4.83;3.60;;;20.40;76.60;;;;;;5052613;28;20242;-68
2023/09/29 02:25:12;;;;;;;5.63;3.73;;;20.40;77.50;;;;;;5051510;28;20227;-70
2023/09/29 02:27:40;;;;;;;5.77;4.07;;;20.40;76.90;;;;;;5051856;28;20222;-70
2023/09/29 02:30:09;;;;;;;5.03;4.03;;;20.40;76.70;;;;;;5051979;28;20249;-70
2023/09/29 02:32:37;;;;;;;3.97;3.60;;;20.40;76.70;;;;;;5051051;28;20230;-69
2023/09/29 02:35:07;;;;;;;4.53;3.90;;;20.40;76.60;;;;;;5051653;28;20202;-70
2023/09/29 02:37:34;;;;;;;3.83;3.53;;;20.40;76.70;;;;;;5051691;28;20836;-70
2023/09/29 02:40:04;;;;;;;4.07;3.67;;;20.40;76.70;;;;;;5051946;28;20247;-69
2023/09/29 02:42:31;;;;;;;5.33;4.27;;;20.40;76.70;;;;;;5053375;28;20603;-70
2023/09/29 02:44:59;;;;;;;5.87;4.10;;;20.40;77.00;;;;;;5054846;28;20210;-69
2023/09/29 02:47:26;;;;;;;5.70;4.03;;;20.40;77.00;;;;;;5042609;28;20199;-70
2023/09/29 02:49:54;;;;;;;4.43;3.90;;;20.40;76.90;;;;;;5035810;28;20245;-71
2023/09/29 02:52:21;;;;;;;5.23;4.27;;;20.40;76.90;;;;;;5038898;28;20555;-70
2023/09/29 02:54:49;;;;;;;5.33;4.17;;;20.50;77.00;;;;;;5055665;28;20236;-68
2023/09/29 02:57:16;;;;;;;4.60;4.20;;;20.40;77.10;;;;;;5055412;28;20248;-69
2023/09/29 02:59:44;;;;;;;7.00;3.90;;;20.50;77.30;;;;;;5055500;28;20737;-69
2023/09/29 03:02:11;;;;;;;5.87;3.90;;;20.50;77.30;;;;;;5054725;28;20213;-70
2023/09/29 03:04:39;;;;;;;4.10;3.70;;;20.50;77.50;;;;;;5055318;28;20620;-69
2023/09/29 03:07:09;;;;;;;4.83;3.73;;;20.50;77.50;;;;;;5055410;28;20657;-69
2023/09/29 03:09:36;;;;;;;4.77;3.67;;;20.50;77.60;;;;;;5055277;28;20201;-69
2023/09/29 03:12:03;;;;;;;3.70;3.30;;;20.50;77.50;;;;;;5055606;28;20233;-69
2023/09/29 03:14:30;;;;;;;4.60;3.67;;;20.60;77.60;;;;;;5054847;28;20551;-69
2023/09/29 03:16:58;;;;;;;4.33;3.67;;;20.60;77.50;;;;;;5055155;28;20248;-69
2023/09/29 03:19:25;;;;;;;8.53;4.40;;;20.60;77.30;;;;;;5055534;28;20536;-69
2023/09/29 03:21:52;;;;;;;5.90;4.33;;;20.60;77.40;;;;;;5054956;28;20352;-69
2023/09/29 03:24:22;;;;;;;4.13;3.70;;;20.60;77.60;;;;;;5054865;28;20574;-69
2023/09/29 03:26:49;;;;;;;4.70;4.03;;;20.50;77.90;;;;;;5055031;28;20271;-68
2023/09/29 03:29:19;;;;;;;5.70;4.10;;;20.50;77.80;;;;;;5054948;28;20229;-68
2023/09/29 03:31:47;;;;;;;4.73;4.23;;;20.40;78.00;;;;;;5055211;28;20524;-69
2023/09/29 03:34:19;;;;;;;9.00;4.07;;;20.50;78.20;;;;;;5053191;28;20222;-68
2023/09/29 03:36:46;;;;;;;5.77;4.10;;;20.50;78.30;;;;;;5054615;28;20226;-69
2023/09/29 03:39:17;;;;;;;5.37;3.90;;;20.50;77.90;;;;;;5054966;28;20279;-69
2023/09/29 03:41:45;;;;;;;4.47;3.97;;;20.50;77.90;;;;;;5054616;28;20208;-69
2023/09/29 03:44:12;;;;;;;5.33;3.93;;;20.50;78.20;;;;;;5054419;28;20789;-69
2023/09/29 03:46:43;;;;;;;4.20;3.80;;;20.60;78.40;;;;;;5054705;28;20208;-69
2023/09/29 03:49:11;;;;;;;4.43;4.03;;;20.50;78.10;;;;;;5054443;28;20239;-69
2023/09/29 03:51:38;;;;;;;4.37;3.97;;;20.60;78.30;;;;;;5054874;28;20248;-70
2023/09/29 03:54:09;;;;;;;4.87;3.50;;;20.60;78.20;;;;;;5054357;28;20208;-69
2023/09/29 03:56:36;;;;;;;7.23;4.00;;;20.60;78.20;;;;;;5054430;28;20224;-68
2023/09/29 03:59:05;;;;;;;4.60;3.63;;;20.70;78.10;;;;;;5054450;28;20205;-68
2023/09/29 04:01:32;;;;;;;4.30;3.60;;;20.70;78.10;;;;;;5054294;28;20292;-70
2023/09/29 04:04:01;;;;;;;4.30;3.37;;;20.70;77.90;;;;;;5054349;28;20251;-70
2023/09/29 04:06:27;;;;;;;4.20;3.20;;;20.70;78.00;;;;;;5053969;28;20717;-70
2023/09/29 04:08:55;;;;;;;4.67;3.70;;;20.80;78.00;;;;;;5054446;28;20205;-70
2023/09/29 04:11:23;;;;;;;4.10;3.73;;;20.80;78.00;;;;;;5054028;28;20236;-70
2023/09/29 04:13:51;;;;;;;5.50;4.13;;;20.80;78.20;;;;;;5053814;28;20202;-67
2023/09/29 04:16:19;;;;;;;4.93;4.20;;;20.70;78.40;;;;;;5053993;28;20259;-70
2023/09/29 04:18:46;;;;;;;4.60;3.90;;;20.70;79.20;;;;;;5054391;28;20590;-69
2023/09/29 04:21:15;;;;;;;4.63;3.93;;;20.60;78.50;;;;;;5053937;28;20708;-69
2023/09/29 04:23:43;;;;;;;6.07;3.83;;;20.60;78.60;;;;;;5053677;28;20226;-69
2023/09/29 04:26:16;;;;;;;7.33;4.43;;;20.60;78.70;;;;;;5053851;28;20217;-69
2023/09/29 04:28:44;;;;;;;4.67;4.10;;;20.60;78.90;;;;;;5053396;28;20230;-69
2023/09/29 04:31:29;;;;;;;4.70;4.10;;;20.60;78.60;;;;;;5053993;28;20202;-69
2023/09/29 04:33:56;;;;;;;4.00;3.60;;;20.60;78.90;;;;;;5053648;28;20226;-70
2023/09/29 04:36:23;;;;;;;3.93;3.53;;;20.60;78.60;;;;;;5053612;28;20212;-70
2023/09/29 04:38:49;;;;;;;3.97;3.57;;;20.70;78.80;;;;;;5053647;28;20236;-70
2023/09/29 04:41:19;;;;;;;3.97;3.57;;;20.70;78.80;;;;;;5053756;28;20238;-70
2023/09/29 04:43:46;;;;;;;4.77;3.97;;;20.70;78.90;;;;;;5053938;28;20209;-70
2023/09/29 04:46:15;;;;;;;5.73;4.17;;;20.70;79.20;;;;;;5053298;28;20210;-70
2023/09/29 04:48:43;;;;;;;7.30;3.87;;;20.70;79.20;;;;;;5053605;28;20205;-70
2023/09/29 04:51:11;;;;;;;5.33;4.30;;;20.70;79.10;;;;;;5053498;28;20229;-70
2023/09/29 04:53:39;;;;;;;6.60;4.13;;;20.70;79.40;;;;;;5053053;28;20198;-70
2023/09/29 04:56:06;;;;;;;8.17;4.97;;;20.70;79.40;;;;;;5052578;28;20246;-67
2023/09/29 04:58:33;;;;;;;6.37;3.87;;;20.70;79.50;;;;;;5053009;28;20225;-67
2023/09/29 05:01:01;;;;;;;6.10;4.53;;;20.70;79.20;;;;;;5052154;28;20237;-67
2023/09/29 05:03:28;;;;;;;4.07;3.67;;;20.80;79.40;;;;;;5052737;28;20228;-67
2023/09/29 05:05:56;;;;;;;5.13;4.00;;;20.80;79.20;;;;;;5051825;28;20209;-70
2023/09/29 05:08:23;;;;;;;5.07;4.07;;;20.70;79.20;;;;;;5049029;28;20205;-67
2023/09/29 05:10:52;;;;;;;4.27;3.87;;;20.70;79.20;;;;;;5052768;28;20206;-68
2023/09/29 05:13:18;;;;;;;6.17;3.90;;;20.60;80.20;;;;;;5053182;28;20628;-70
2023/09/29 05:15:45;;;;;;;4.23;3.83;;;20.60;79.70;;;;;;5051379;28;20218;-68
2023/09/29 05:18:12;;;;;;;5.30;3.50;;;20.60;79.80;;;;;;5052337;28;20670;-71
2023/09/29 05:20:39;;;;;;;4.93;3.47;;;20.50;79.60;;;;;;5044662;28;20365;-71
2023/09/29 05:23:09;;;;;;;4.03;3.63;;;20.50;79.80;;;;;;5052004;28;20221;-74
2023/09/29 05:25:35;;;;;;;4.17;3.77;;;20.60;80.00;;;;;;5052324;28;20209;-73
2023/09/29 05:28:03;;;;;;;5.47;3.90;;;20.60;80.00;;;;;;5052866;28;20226;-74
2023/09/29 05:30:29;;;;;;;5.27;3.70;;;20.50;80.00;;;;;;5052950;28;20212;-72
2023/09/29 05:32:56;;;;;;;4.00;3.60;;;20.50;80.00;;;;;;5052559;28;20195;-73
2023/09/29 05:35:24;;;;;;;5.70;3.87;;;20.50;80.10;;;;;;5052281;28;20714;-73
2023/09/29 05:37:51;;;;;;;3.70;3.40;;;20.60;80.30;;;;;;5052231;28;20225;-73
2023/09/29 05:40:19;;;;;;;4.73;3.90;;;20.60;80.20;;;;;;5052658;28;20226;-73
2023/09/29 05:42:46;;;;;;;6.97;3.70;;;20.60;80.30;;;;;;5052582;28;20313;-74
2023/09/29 05:45:13;;;;;;;3.97;3.57;;;20.60;80.20;;;;;;5052383;28;20321;-75
2023/09/29 05:47:43;;;;;;;4.50;3.53;;;20.70;80.30;;;;;;5051666;28;20190;-74
2023/09/29 05:50:11;;;;;;;3.60;3.30;;;20.70;80.50;;;;;;5052368;28;20315;-75
2023/09/29 05:52:39;;;;;;;4.60;3.80;;;20.80;80.20;;;;;;5052953;28;20213;-76
2023/09/29 05:55:09;;;;;;;4.10;3.60;;;20.60;79.70;;;;;;5053022;28;20677;-76
2023/09/29 05:57:37;;;;;;;4.27;3.80;;;20.80;79.80;;;;;;5052883;28;20217;-77
2023/09/29 06:00:06;;;;;;;4.77;3.77;;;20.80;79.70;;;;;;5053027;28;20306;-78
2023/09/29 06:02:35;;;;;;;8.20;3.90;;;20.80;79.70;;;;;;5052277;28;20221;-77
2023/09/29 06:05:03;;;;;;;3.77;3.37;;;20.90;80.00;;;;;;5052220;28;20223;-77
2023/09/29 06:07:30;;;;;;;5.20;3.80;;;20.90;79.90;;;;;;5051902;28;20737;-76
2023/09/29 06:10:00;;;;;;;5.30;3.73;;;20.80;79.70;;;;;;5051965;28;20285;-76
2023/09/29 06:12:27;;;;;;;4.33;3.57;;;20.90;80.00;;;;;;5033022;28;20260;-76
2023/09/29 06:14:55;;;;;;;4.70;3.73;;;20.90;80.00;;;;;;5045644;28;20276;-76
2023/09/29 06:17:22;;;;;;;6.93;4.30;;;21.00;80.10;;;;;;5053095;28;20297;-76
2023/09/29 06:19:49;;;;;;;5.33;4.10;;;21.00;79.70;;;;;;5055774;28;20217;-76
2023/09/29 06:22:16;;;;;;;4.53;3.73;;;21.00;79.60;;;;;;5056775;28;20297;-76
2023/09/29 06:24:44;;;;;;;5.07;3.70;;;21.00;79.70;;;;;;5056633;28;20232;-76
2023/09/29 06:27:12;;;;;;;4.13;3.73;;;21.00;80.00;;;;;;5056345;28;20257;-76
2023/09/29 06:29:40;;;;;;;3.90;3.50;;;21.00;80.10;;;;;;5055923;28;20273;-76
2023/09/29 06:32:09;;;;;;;4.43;3.80;;;21.10;79.90;;;;;;5056347;28;20611;-78
2023/09/29 06:34:36;;;;;;;4.60;4.07;;;21.10;79.90;;;;;;5055708;28;20232;-76
2023/09/29 06:37:03;;;;;;;3.93;3.47;;;21.10;79.80;;;;;;5055320;28;20296;-75
2023/09/29 06:39:30;;;;;;;4.63;4.13;;;21.00;79.60;;;;;;5034173;28;20229;-74
2023/09/29 06:42:00;;;;;;;4.07;3.67;;;21.20;79.60;;;;;;5034778;28;20301;-76
2023/09/29 06:44:27;;;;;;;6.17;4.30;;;21.20;79.60;;;;;;5035015;28;20237;-74
2023/09/29 06:46:55;;;;;;;4.00;3.50;;;21.20;80.10;;;;;;5034494;28;20325;-74
2023/09/29 06:49:25;;;;;;;4.17;3.40;;;21.30;79.50;;;;;;5053633;28;20289;-76
2023/09/29 06:51:52;;;;;;;4.67;4.10;;;21.30;79.40;;;;;;5054416;28;20237;-77
2023/09/29 06:54:19;;;;;;;4.40;4.00;;;21.40;79.20;;;;;;5055545;28;20320;-77
2023/09/29 06:56:47;;;;;;;4.20;3.80;;;21.40;79.10;;;;;;5054098;28;20278;-75
2023/09/29 06:59:14;;;;;;;4.33;3.93;;;21.40;78.90;;;;;;5054681;28;20308;-77
2023/09/29 07:01:41;;;;;;;4.30;3.50;;;21.50;78.90;;;;;;5055062;28;20560;-76
2023/09/29 07:04:09;;;;;;;5.03;3.70;;;21.50;78.90;;;;;;5054804;28;20326;-74
2023/09/29 07:06:44;;;;;;;5.40;3.93;;;21.70;78.60;;;;;;5055066;28;20280;-77
2023/09/29 07:09:14;;;;;;;4.30;3.57;;;21.70;78.00;;;;;;5055426;28;20232;-77
2023/09/29 07:11:41;;;;;;;7.37;3.63;;;21.80;78.00;;;;;;5055002;28;20213;-77
2023/09/29 07:14:08;;;;;;;4.97;3.80;;;21.80;77.90;;;;;;5054623;28;20229;-77
2023/09/29 07:16:35;;;;;;;5.27;3.83;;;21.90;78.40;;;;;;5054762;28;20229;-77
2023/09/29 07:19:04;;;;;;;5.03;3.73;;;21.90;77.10;;;;;;5054877;28;20281;-77
2023/09/29 07:21:31;;;;;;;4.40;3.60;;;22.00;76.70;;;;;;5055191;28;20213;-77
2023/09/29 07:24:02;;;;;;;4.40;3.53;;;22.00;76.70;;;;;;5055257;28;20304;-77
2023/09/29 07:26:32;;;;;;;5.70;3.43;;;22.10;77.10;;;;;;5054847;28;20316;-77
2023/09/29 07:29:01;;;;;;;4.43;4.03;;;22.10;77.40;;;;;;5054562;28;20723;-77
2023/09/29 07:31:35;;;;;;;4.50;3.47;;;22.20;77.60;;;;;;5055187;28;20225;-77
2023/09/29 07:34:04;;;;;;;4.47;3.53;;;22.20;77.80;;;;;;5055155;28;20228;-77
2023/09/29 07:36:33;;;;;;;4.20;3.73;;;22.30;77.30;;;;;;5055002;28;20289;-77
2023/09/29 07:39:01;;;;;;;3.97;3.53;;;22.30;77.00;;;;;;5054882;28;20226;-77
2023/09/29 07:41:28;;;;;;;6.87;3.73;;;22.30;77.00;;;;;;5054484;28;20300;-77
2023/09/29 07:43:56;;;;;;;5.63;4.03;;;22.40;76.80;;;;;;5054779;28;20557;-77
2023/09/29 07:46:23;;;;;;;4.40;3.97;;;22.50;76.80;;;;;;5054682;28;20275;-77
2023/09/29 07:48:50;;;;;;;6.90;4.20;;;22.60;76.80;;;;;;5054553;28;20296;-77
2023/09/29 07:51:17;;;;;;;5.73;3.70;;;22.60;76.30;;;;;;5054840;28;20288;-76
2023/09/29 07:53:44;;;;;;;4.00;3.60;;;22.70;76.20;;;;;;5051949;28;20606;-77
2023/09/29 07:56:13;;;;;;;4.63;3.60;;;22.70;76.20;;;;;;5050693;28;20662;-77
2023/09/29 07:58:40;;;;;;;4.00;3.53;;;22.70;75.60;;;;;;5054199;28;20731;-76
2023/09/29 08:01:07;;;;;;;4.87;3.77;;;22.80;75.10;;;;;;5042189;28;20209;-77
2023/09/29 08:03:34;;;;;;;3.90;3.50;;;22.80;75.00;;;;;;5033326;28;20590;-76
2023/09/29 08:06:01;;;;;;;5.83;3.97;;;22.80;74.60;;;;;;5034375;28;20234;-77
2023/09/29 08:08:28;;;;;;;4.07;3.60;;;22.80;74.90;;;;;;5034752;28;20245;-76
2023/09/29 08:10:55;;;;;;;6.93;3.53;;;22.90;75.00;;;;;;5033949;28;20230;-77
2023/09/29 08:13:25;;;;;;;4.00;3.60;;;23.10;75.00;;;;;;5047071;28;20208;-76
2023/09/29 08:15:52;;;;;;;5.67;4.00;;;23.10;74.00;;;;;;5048376;28;20206;-77
2023/09/29 08:18:19;;;;;;;6.23;4.33;;;23.30;73.00;;;;;;5053786;28;20222;-78
2023/09/29 08:20:47;;;;;;;5.33;3.80;;;23.30;72.60;;;;;;5048201;28;20214;-77
2023/09/29 08:23:13;;;;;;;4.83;3.77;;;23.50;72.20;;;;;;5053713;28;20267;-77
2023/09/29 08:25:43;;;;;;;7.33;3.77;;;23.60;71.40;;;;;;5040780;28;20195;-77
2023/09/29 08:28:13;;;;;;;4.30;3.67;;;23.70;71.10;;;;;;5032709;28;20216;-77
2023/09/29 08:30:48;;;;;;;4.60;3.33;;;23.80;70.60;;;;;;5033859;28;20609;-76
2023/09/29 08:33:15;;;;;;;6.37;3.60;;;24.00;70.40;;;;;;5034420;28;20280;-76
2023/09/29 08:35:42;;;;;;;4.87;3.70;;;24.10;70.30;;;;;;5042245;28;20194;-76
2023/09/29 08:38:09;;;;;;;7.87;4.20;;;24.10;70.40;;;;;;5052344;28;20261;-75
2023/09/29 08:40:39;;;;;;;4.63;4.10;;;24.30;70.40;;;;;;5051120;28;20244;-76
2023/09/29 08:43:10;;;;;;;5.43;4.23;;;24.40;69.60;;;;;;5052365;28;20252;-76
2023/09/29 08:45:44;;;;;;;4.37;3.80;;;24.50;68.80;;;;;;5051928;28;20738;-75
2023/09/29 08:48:13;;;;;;;9.40;3.97;;;24.60;68.70;;;;;;5047066;28;20709;-76
2023/09/29 08:50:42;;;;;;;5.60;4.17;;;24.70;68.60;;;;;;5046531;28;20288;-75
2023/09/29 08:53:11;;;;;;;4.73;3.73;;;24.80;68.50;;;;;;5041727;28;20731;-75
2023/09/29 08:55:39;;;;;;;5.07;3.47;;;24.90;68.90;;;;;;5050723;28;21093;-75
2023/09/29 08:58:07;;;;;;;4.40;3.83;;;25.00;67.80;;;;;;5052184;28;20724;-74
2023/09/29 09:00:34;;;;;;;5.80;3.73;;;25.20;67.70;;;;;;5051513;28;20202;-73
2023/09/29 09:03:02;;;;;;;4.37;3.67;;;25.30;67.70;;;;;;5051747;28;20248;-73
2023/09/29 09:05:36;;;;;;;4.60;3.40;;;25.40;67.10;;;;;;5051863;28;20340;-75
2023/09/29 09:08:03;;;;;;;4.93;3.50;;;25.60;66.10;;;;;;5046302;28;20208;-76
2023/09/29 09:10:32;;;;;;;4.53;3.57;;;25.70;65.60;;;;;;5032324;28;20213;-75
2023/09/29 09:12:59;;;;;;;4.10;3.67;;;25.80;65.50;;;;;;5042675;28;20288;-75
2023/09/29 09:15:27;;;;;;;4.33;3.70;;;25.80;65.40;;;;;;5050424;28;20232;-74
2023/09/29 09:17:56;;;;;;;5.97;3.60;;;25.90;64.30;;;;;;5051472;28;20213;-73
2023/09/29 09:20:23;;;;;;;7.37;3.90;;;25.90;63.60;;;;;;5051641;28;20228;-74
2023/09/29 09:23:03;;;;;;;4.63;3.33;;;26.00;63.80;;;;;;5051808;28;20213;-73
2023/09/29 09:25:35;;;;;;;3.67;3.37;;;26.20;63.90;;;;;;5051838;28;20261;-74
2023/09/29 09:28:03;;;;;;;5.03;3.70;;;26.30;63.80;;;;;;5050198;28;20690;-73
2023/09/29 09:30:35;;;;;;;4.97;3.20;;;26.40;63.60;;;;;;5045819;28;20237;-74
2023/09/29 09:33:04;;;;;;;5.03;3.53;;;26.50;63.20;;;;;;5051223;28;20253;-73
2023/09/29 09:35:36;;;;;;;4.70;3.37;;;26.60;62.50;;;;;;5051613;28;20226;-73
2023/09/29 09:38:05;;;;;;;4.90;3.63;;;26.70;62.20;;;;;;5049952;28;20655;-75
2023/09/29 09:40:32;;;;;;;3.83;3.23;;;26.90;62.00;;;;;;5051329;28;20227;-75
2023/09/29 09:43:03;;;;;;;3.73;3.33;;;27.00;61.70;;;;;;5050866;28;20238;-75
2023/09/29 09:45:37;;;;;;;4.33;3.20;;;27.10;61.10;;;;;;5049710;28;20234;-73
2023/09/29 09:48:07;;;;;;;5.40;3.57;;;27.20;60.80;;;;;;5050448;28;20285;-73
2023/09/29 09:50:36;;;;;;;5.20;3.30;;;27.50;60.30;;;;;;5039513;28;20213;-75
2023/09/29 09:53:08;;;;;;;8.00;3.63;;;27.60;59.70;;;;;;5050004;28;20207;-75
2023/09/29 09:55:40;;;;;;;4.53;3.10;;;27.70;59.40;;;;;;5049662;28;20212;-75
2023/09/29 09:58:09;;;;;;;8.03;3.60;;;27.80;58.70;;;;;;5040196;28;20561;-75
2023/09/29 10:00:41;;;;;;;3.60;3.30;;;27.80;58.50;;;;;;5048177;28;20281;-74
2023/09/29 10:03:11;;;;;;;6.30;3.20;;;27.90;58.00;;;;;;5031330;28;20692;-75
2023/09/29 10:05:43;;;;;;;4.63;3.13;;;27.90;58.40;;;;;;5034114;28;20293;-75
2023/09/29 10:08:12;;;;;;;3.90;3.37;;;27.90;58.10;;;;;;5032163;28;20205;-75
2023/09/29 10:10:40;;;;;;;5.30;3.70;;;28.10;58.10;;;;;;5049459;28;20201;-77
2023/09/29 10:13:17;;;;;;;5.40;3.63;;;28.20;58.10;;;;;;5051138;28;20229;-75
2023/09/29 10:15:55;;;;;;;3.50;3.20;;;28.40;57.90;;;;;;5051070;28;20209;-75
2023/09/29 10:18:22;;;;;;;4.23;3.57;;;28.60;57.80;;;;;;5036561;28;20206;-74
2023/09/29 10:20:55;;;;;;;3.93;3.20;;;28.90;57.10;;;;;;5036451;28;20581;-74
2023/09/29 10:23:25;;;;;;;4.60;3.40;;;29.00;57.10;;;;;;5051255;28;20298;-74
2023/09/29 10:25:58;;;;;;;3.47;3.13;;;29.10;57.10;;;;;;5050875;28;20548;-75
2023/09/29 10:28:34;;;;;;;5.67;3.17;;;29.20;56.30;;;;;;5050776;28;20292;-74
2023/09/29 10:31:08;;;;;;;4.30;3.30;;;29.20;55.80;;;;;;5046460;28;20666;-75
2023/09/29 10:33:47;;;;;;;4.33;3.23;;;29.30;55.70;;;;;;5031239;28;20195;-74
2023/09/29 10:36:14;;;;;;;4.63;3.17;;;29.40;55.30;;;;;;5049990;28;20285;-74
2023/09/29 10:38:43;;;;;;;3.87;3.27;;;29.30;55.00;;;;;;5050437;28;20264;-74
2023/09/29 10:41:10;;;;;;;3.87;3.47;;;29.20;55.70;;;;;;5050822;28;20296;-72
2023/09/29 10:43:37;;;;;;;3.40;3.10;;;29.30;55.80;;;;;;5050199;28;20276;-73
2023/09/29 10:46:08;;;;;;;4.30;3.33;;;29.40;55.70;;;;;;5049577;28;20225;-72
2023/09/29 10:48:43;;;;;;;5.03;2.87;;;29.40;54.60;;;;;;5041663;28;20198;-74
2023/09/29 10:51:11;;;;;;;4.87;3.30;;;29.50;55.50;;;;;;5044068;28;20300;-72
2023/09/29 10:53:40;;;;;;;4.60;3.20;;;29.60;54.80;;;;;;5040503;28;20547;-72
2023/09/29 10:56:09;;;;;;;3.43;3.13;;;29.50;54.70;;;;;;5030736;28;20260;-72
2023/09/29 10:58:37;;;;;;;4.30;3.90;;;29.60;54.80;;;;;;5030842;28;20240;-73
2023/09/29 11:01:05;;;;;;;4.40;3.10;;;29.80;54.80;;;;;;5033812;28;20210;-75
2023/09/29 11:03:32;;;;;;;4.90;3.00;;;29.80;54.20;;;;;;5049272;28;20300;-74
2023/09/29 11:06:03;;;;;;;3.90;3.50;;;29.90;54.50;;;;;;5047235;28;20230;-74
2023/09/29 11:08:31;;;;;;;3.40;3.10;;;30.00;54.00;;;;;;5034167;28;20210;-74
2023/09/29 11:10:59;;;;;;;4.07;3.10;;;30.10;53.90;;;;;;5048540;28;20246;-74
2023/09/29 11:13:28;;;;;;;4.07;3.33;;;30.20;54.00;;;;;;5054229;28;20252;-73
2023/09/29 11:15:56;;;;;;;4.70;3.47;;;30.30;53.40;;;;;;5054331;28;20229;-74
2023/09/29 11:18:27;;;;;;;5.13;3.70;;;30.20;53.50;;;;;;5053791;28;20206;-75
2023/09/29 11:20:54;;;;;;;5.17;3.33;;;30.30;53.10;;;;;;5047426;28;20282;-74
2023/09/29 11:23:21;;;;;;;4.67;3.57;;;30.30;53.90;;;;;;5050082;28;20221;-73
2023/09/29 11:25:49;;;;;;;5.20;3.03;;;30.50;53.50;;;;;;5054253;28;20212;-73
2023/09/29 11:28:16;;;;;;;3.57;3.27;;;30.60;52.60;;;;;;5053792;28;20259;-73
2023/09/29 11:30:45;;;;;;;6.53;3.40;;;30.60;52.50;;;;;;5053811;28;20236;-73
2023/09/29 11:33:13;;;;;;;3.27;2.97;;;30.50;52.20;;;;;;5048886;28;20199;-73
2023/09/29 11:35:45;;;;;;;5.23;3.33;;;30.60;52.60;;;;;;5052349;28;20201;-73
2023/09/29 11:38:15;;;;;;;5.23;3.23;;;30.70;52.50;;;;;;5046661;28;20190;-73
2023/09/29 11:40:42;;;;;;;5.10;3.23;;;30.70;52.10;;;;;;5053944;28;20229;-74
2023/09/29 11:43:09;;;;;;;5.53;3.10;;;30.80;52.40;;;;;;5053752;28;20420;-73
2023/09/29 11:45:36;;;;;;;4.17;3.47;;;30.90;52.50;;;;;;5053686;28;20689;-73
2023/09/29 11:48:05;;;;;;;3.73;3.40;;;30.90;51.80;;;;;;5053047;28;20617;-73
2023/09/29 11:50:33;;;;;;;3.50;3.17;;;31.10;51.90;;;;;;5053311;28;20245;-73
2023/09/29 11:53:03;;;;;;;3.50;2.97;;;31.20;51.60;;;;;;5053284;28;20261;-73
2023/09/29 11:55:30;;;;;;;5.50;3.63;;;31.40;51.00;;;;;;5053444;28;20237;-74
2023/09/29 11:57:57;;;;;;;4.50;3.03;;;31.50;50.40;;;;;;5048497;28;20291;-75
2023/09/29 12:00:24;;;;;;;4.57;3.27;;;31.60;50.20;;;;;;5049660;28;20307;-75
2023/09/29 12:02:51;;;;;;;4.50;3.23;;;31.70;50.40;;;;;;5052720;28;20236;-75
2023/09/29 12:05:19;;;;;;;6.20;2.83;;;31.90;50.20;;;;;;5052902;28;20251;-75
2023/09/29 12:07:46;;;;;;;5.00;3.20;;;32.00;49.80;;;;;;5048597;28;20206;-75
2023/09/29 12:10:13;;;;;;;5.43;3.13;;;32.10;49.20;;;;;;5052119;28;20718;-74
2023/09/29 12:12:40;;;;;;;4.30;3.20;;;32.20;49.20;;;;;;5053237;28;20219;-75
2023/09/29 12:15:08;;;;;;;4.63;3.80;;;32.50;48.80;;;;;;5051891;28;20589;-75
2023/09/29 12:17:35;;;;;;;3.73;3.10;;;32.70;48.60;;;;;;5052299;28;20257;-74
2023/09/29 12:20:03;;;;;;;5.53;3.47;;;32.50;48.10;;;;;;5052822;28;20231;-75
2023/09/29 12:22:31;;;;;;;3.57;3.27;;;32.10;48.30;;;;;;5052562;28;20655;-74
2023/09/29 12:24:58;;;;;;;4.53;3.60;;;31.80;49.20;;;;;;5052659;28;20224;-73
2023/09/29 12:27:25;;;;;;;4.77;3.33;;;31.40;49.70;;;;;;5049864;28;20199;-73
2023/09/29 12:29:52;;;;;;;4.77;3.57;;;31.20;50.60;;;;;;5052567;28;20257;-75
2023/09/29 12:32:19;;;;;;;4.67;3.70;;;31.00;50.70;;;;;;5045015;28;20212;-74
2023/09/29 12:34:45;;;;;;;3.87;3.43;;;30.90;51.10;;;;;;5032884;28;20238;-74
2023/09/29 12:37:12;;;;;;;8.17;3.40;;;30.70;51.50;;;;;;5032692;28;20228;-75
2023/09/29 12:39:41;;;;;;;3.87;3.47;;;30.70;52.30;;;;;;5032713;28;20229;-74
2023/09/29 12:42:08;;;;;;;3.77;3.27;;;30.60;52.10;;;;;;5032664;28;20226;-75
2023/09/29 12:44:35;;;;;;;3.60;3.30;;;30.60;52.30;;;;;;5040902;28;20199;-75
2023/09/29 12:47:03;;;;;;;3.17;2.87;;;30.50;52.70;;;;;;5047207;28;20202;-73
2023/09/29 12:49:30;;;;;;;5.27;3.00;;;30.50;52.70;;;;;;5052675;28;20264;-73
2023/09/29 12:51:57;;;;;;;4.97;2.97;;;30.50;52.90;;;;;;5049415;28;20202;-75
2023/09/29 12:54:23;;;;;;;3.83;3.10;;;30.50;52.80;;;;;;5052726;28;20217;-75